sensor_id;sensor_type;location;lat;lon;timestamp;P1;durP1;ratioP1;P2;durP2;ratioP2
74170;SDS011;62526;50.948;6.590;2022-12-31T00:02:07;2.15;;;0.70;;
74170;SDS011;62526;50.948;6.590;2022-12-31T00:04:35;0.80;;;0.80;;
74170;SDS011;62526;50.948;6.590;2022-12-31T00:07:02;3.08;;;0.80;;
74170;SDS011;62526;50.948;6.590;2022-12-31T00:09:29;2.58;;;0.75;;
74170;SDS011;62526;50.948;6.590;2022-12-31T00:11:56;1.25;;;1.00;;
74170;SDS011;62526;50.948;6.590;2022-12-31T00:14:24;3.87;;;1.00;;
74170;SDS011;62526;50.948;6.590;2022-12-31T00:16:50;5.82;;;1.27;;
74170;SDS011;62526;50.948;6.590;2022-12-31T00:19:18;4.25;;;1.10;;
74170;SDS011;62526;50.948;6.590;2022-12-31T00:21:45;3.35;;;1.12;;
74170;SDS011;62526;50.948;6.590;2022-12-31T00:24:13;0.88;;;0.70;;
74170;SDS011;62526;50.948;6.590;2022-12-31T00:26:40;0.80;;;0.80;;
74170;SDS011;62526;50.948;6.590;2022-12-31T00:29:08;0.80;;;0.80;;
74170;SDS011;62526;50.948;6.590;2022-12-31T00:31:35;0.65;;;0.65;;
74170;SDS011;62526;50.948;6.590;2022-12-31T00:34:01;1.52;;;0.80;;
74170;SDS011;62526;50.948;6.590;2022-12-31T00:36:29;0.70;;;0.70;;
74170;SDS011;62526;50.948;6.590;2022-12-31T00:38:57;1.02;;;0.82;;
74170;SDS011;62526;50.948;6.590;2022-12-31T00:41:25;0.73;;;0.73;;
74170;SDS011;62526;50.948;6.590;2022-12-31T00:43:54;0.70;;;0.70;;
74170;SDS011;62526;50.948;6.590;2022-12-31T00:46:21;0.65;;;0.65;;
74170;SDS011;62526;50.948;6.590;2022-12-31T00:48:48;0.73;;;0.40;;
74170;SDS011;62526;50.948;6.590;2022-12-31T00:51:15;0.77;;;0.68;;
74170;SDS011;62526;50.948;6.590;2022-12-31T00:53:41;0.68;;;0.68;;
74170;SDS011;62526;50.948;6.590;2022-12-31T00:56:11;1.00;;;0.80;;
74170;SDS011;62526;50.948;6.590;2022-12-31T00:58:36;2.12;;;0.70;;
74170;SDS011;62526;50.948;6.590;2022-12-31T01:01:15;1.85;;;0.80;;
74170;SDS011;62526;50.948;6.590;2022-12-31T01:03:44;0.45;;;0.45;;
74170;SDS011;62526;50.948;6.590;2022-12-31T01:06:11;2.70;;;0.95;;
74170;SDS011;62526;50.948;6.590;2022-12-31T01:08:38;4.15;;;0.80;;
74170;SDS011;62526;50.948;6.590;2022-12-31T01:11:05;3.08;;;1.00;;
74170;SDS011;62526;50.948;6.590;2022-12-31T01:13:37;1.23;;;0.80;;
74170;SDS011;62526;50.948;6.590;2022-12-31T01:16:06;0.98;;;0.70;;
74170;SDS011;62526;50.948;6.590;2022-12-31T01:18:33;1.75;;;0.80;;
74170;SDS011;62526;50.948;6.590;2022-12-31T01:21:00;2.92;;;0.90;;
74170;SDS011;62526;50.948;6.590;2022-12-31T01:23:26;1.98;;;0.80;;
74170;SDS011;62526;50.948;6.590;2022-12-31T01:25:52;0.60;;;0.60;;
74170;SDS011;62526;50.948;6.590;2022-12-31T01:28:19;0.50;;;0.50;;
74170;SDS011;62526;50.948;6.590;2022-12-31T01:30:46;0.60;;;0.60;;
74170;SDS011;62526;50.948;6.590;2022-12-31T01:33:12;1.75;;;0.50;;
74170;SDS011;62526;50.948;6.590;2022-12-31T01:35:39;0.68;;;0.57;;
74170;SDS011;62526;50.948;6.590;2022-12-31T01:38:06;0.73;;;0.50;;
74170;SDS011;62526;50.948;6.590;2022-12-31T01:40:35;1.75;;;0.50;;
74170;SDS011;62526;50.948;6.590;2022-12-31T01:43:02;1.12;;;0.40;;
74170;SDS011;62526;50.948;6.590;2022-12-31T01:45:28;0.52;;;0.52;;
74170;SDS011;62526;50.948;6.590;2022-12-31T01:47:56;0.50;;;0.50;;
74170;SDS011;62526;50.948;6.590;2022-12-31T01:50:24;2.65;;;0.70;;
74170;SDS011;62526;50.948;6.590;2022-12-31T01:52:51;0.50;;;0.50;;
74170;SDS011;62526;50.948;6.590;2022-12-31T01:55:20;1.55;;;0.60;;
74170;SDS011;62526;50.948;6.590;2022-12-31T01:57:47;0.50;;;0.50;;
74170;SDS011;62526;50.948;6.590;2022-12-31T02:00:13;0.50;;;0.50;;
74170;SDS011;62526;50.948;6.590;2022-12-31T02:02:40;0.52;;;0.52;;
74170;SDS011;62526;50.948;6.590;2022-12-31T02:05:10;1.30;;;0.52;;
74170;SDS011;62526;50.948;6.590;2022-12-31T02:07:50;0.50;;;0.50;;
74170;SDS011;62526;50.948;6.590;2022-12-31T02:10:16;1.30;;;0.62;;
74170;SDS011;62526;50.948;6.590;2022-12-31T02:12:43;0.77;;;0.77;;
74170;SDS011;62526;50.948;6.590;2022-12-31T02:15:10;0.57;;;0.57;;
74170;SDS011;62526;50.948;6.590;2022-12-31T02:17:42;0.40;;;0.40;;
74170;SDS011;62526;50.948;6.590;2022-12-31T02:20:09;0.68;;;0.68;;
74170;SDS011;62526;50.948;6.590;2022-12-31T02:25:30;0.65;;;0.60;;
74170;SDS011;62526;50.948;6.590;2022-12-31T02:30:34;0.70;;;0.50;;
74170;SDS011;62526;50.948;6.590;2022-12-31T02:33:03;0.50;;;0.50;;
74170;SDS011;62526;50.948;6.590;2022-12-31T02:35:31;2.10;;;0.70;;
74170;SDS011;62526;50.948;6.590;2022-12-31T02:38:02;0.75;;;0.75;;
74170;SDS011;62526;50.948;6.590;2022-12-31T02:40:28;0.60;;;0.60;;
74170;SDS011;62526;50.948;6.590;2022-12-31T02:42:55;0.98;;;0.70;;
74170;SDS011;62526;50.948;6.590;2022-12-31T02:45:25;2.37;;;0.65;;
74170;SDS011;62526;50.948;6.590;2022-12-31T02:47:50;1.45;;;1.00;;
74170;SDS011;62526;50.948;6.590;2022-12-31T02:53:13;1.65;;;0.62;;
74170;SDS011;62526;50.948;6.590;2022-12-31T02:55:48;0.50;;;0.50;;
74170;SDS011;62526;50.948;6.590;2022-12-31T02:58:30;0.85;;;0.60;;
74170;SDS011;62526;50.948;6.590;2022-12-31T03:01:19;0.73;;;0.60;;
74170;SDS011;62526;50.948;6.590;2022-12-31T03:03:49;1.67;;;0.70;;
74170;SDS011;62526;50.948;6.590;2022-12-31T03:06:16;1.08;;;0.77;;
74170;SDS011;62526;50.948;6.590;2022-12-31T03:08:42;0.50;;;0.50;;
74170;SDS011;62526;50.948;6.590;2022-12-31T03:11:15;0.60;;;0.60;;
74170;SDS011;62526;50.948;6.590;2022-12-31T03:13:42;1.62;;;0.60;;
74170;SDS011;62526;50.948;6.590;2022-12-31T03:16:09;0.50;;;0.50;;
74170;SDS011;62526;50.948;6.590;2022-12-31T03:18:35;0.60;;;0.60;;
74170;SDS011;62526;50.948;6.590;2022-12-31T03:21:17;0.98;;;0.75;;
74170;SDS011;62526;50.948;6.590;2022-12-31T03:23:49;1.45;;;0.62;;
74170;SDS011;62526;50.948;6.590;2022-12-31T03:26:22;1.67;;;0.80;;
74170;SDS011;62526;50.948;6.590;2022-12-31T03:28:48;0.60;;;0.60;;
74170;SDS011;62526;50.948;6.590;2022-12-31T03:31:15;0.60;;;0.60;;
74170;SDS011;62526;50.948;6.590;2022-12-31T03:33:42;0.50;;;0.50;;
74170;SDS011;62526;50.948;6.590;2022-12-31T03:36:10;0.60;;;0.60;;
74170;SDS011;62526;50.948;6.590;2022-12-31T03:38:36;0.80;;;0.80;;
74170;SDS011;62526;50.948;6.590;2022-12-31T03:41:02;0.55;;;0.55;;
74170;SDS011;62526;50.948;6.590;2022-12-31T03:43:29;0.47;;;0.47;;
74170;SDS011;62526;50.948;6.590;2022-12-31T03:45:56;0.60;;;0.60;;
74170;SDS011;62526;50.948;6.590;2022-12-31T03:48:24;0.55;;;0.55;;
74170;SDS011;62526;50.948;6.590;2022-12-31T03:50:50;0.52;;;0.52;;
74170;SDS011;62526;50.948;6.590;2022-12-31T03:53:17;0.70;;;0.70;;
74170;SDS011;62526;50.948;6.590;2022-12-31T03:55:44;1.90;;;0.80;;
74170;SDS011;62526;50.948;6.590;2022-12-31T03:58:11;0.90;;;0.90;;
74170;SDS011;62526;50.948;6.590;2022-12-31T04:00:37;0.55;;;0.55;;
74170;SDS011;62526;50.948;6.590;2022-12-31T04:03:04;0.60;;;0.55;;
74170;SDS011;62526;50.948;6.590;2022-12-31T04:05:31;0.50;;;0.50;;
74170;SDS011;62526;50.948;6.590;2022-12-31T04:07:57;0.45;;;0.45;;
74170;SDS011;62526;50.948;6.590;2022-12-31T04:10:25;3.40;;;0.77;;
74170;SDS011;62526;50.948;6.590;2022-12-31T04:12:52;1.20;;;0.60;;
74170;SDS011;62526;50.948;6.590;2022-12-31T04:15:19;3.22;;;0.70;;
74170;SDS011;62526;50.948;6.590;2022-12-31T04:17:45;0.77;;;0.70;;
74170;SDS011;62526;50.948;6.590;2022-12-31T04:20:12;0.70;;;0.70;;
74170;SDS011;62526;50.948;6.590;2022-12-31T04:22:38;0.70;;;0.70;;
74170;SDS011;62526;50.948;6.590;2022-12-31T04:25:06;0.60;;;0.60;;
74170;SDS011;62526;50.948;6.590;2022-12-31T04:27:37;0.57;;;0.57;;
74170;SDS011;62526;50.948;6.590;2022-12-31T04:30:03;0.70;;;0.70;;
74170;SDS011;62526;50.948;6.590;2022-12-31T04:32:30;0.65;;;0.65;;
74170;SDS011;62526;50.948;6.590;2022-12-31T04:34:57;0.70;;;0.68;;
74170;SDS011;62526;50.948;6.590;2022-12-31T04:37:24;1.08;;;0.90;;
74170;SDS011;62526;50.948;6.590;2022-12-31T04:39:51;0.60;;;0.60;;
74170;SDS011;62526;50.948;6.590;2022-12-31T04:42:17;3.55;;;0.60;;
74170;SDS011;62526;50.948;6.590;2022-12-31T04:44:44;0.88;;;0.60;;
74170;SDS011;62526;50.948;6.590;2022-12-31T04:47:11;0.55;;;0.55;;
74170;SDS011;62526;50.948;6.590;2022-12-31T04:49:37;0.50;;;0.50;;
74170;SDS011;62526;50.948;6.590;2022-12-31T04:52:04;0.50;;;0.50;;
74170;SDS011;62526;50.948;6.590;2022-12-31T04:54:31;1.52;;;0.80;;
74170;SDS011;62526;50.948;6.590;2022-12-31T04:56:57;0.77;;;0.62;;
74170;SDS011;62526;50.948;6.590;2022-12-31T04:59:25;2.08;;;0.75;;
74170;SDS011;62526;50.948;6.590;2022-12-31T05:01:51;1.52;;;0.93;;
74170;SDS011;62526;50.948;6.590;2022-12-31T05:04:18;4.25;;;1.25;;
74170;SDS011;62526;50.948;6.590;2022-12-31T05:06:45;3.83;;;0.75;;
74170;SDS011;62526;50.948;6.590;2022-12-31T05:09:11;0.73;;;0.68;;
74170;SDS011;62526;50.948;6.590;2022-12-31T05:11:38;1.25;;;1.05;;
74170;SDS011;62526;50.948;6.590;2022-12-31T05:14:05;0.90;;;0.88;;
74170;SDS011;62526;50.948;6.590;2022-12-31T05:16:31;2.92;;;1.02;;
74170;SDS011;62526;50.948;6.590;2022-12-31T05:18:58;2.58;;;1.25;;
74170;SDS011;62526;50.948;6.590;2022-12-31T05:21:25;1.23;;;0.75;;
74170;SDS011;62526;50.948;6.590;2022-12-31T05:23:52;1.45;;;0.80;;
74170;SDS011;62526;50.948;6.590;2022-12-31T05:26:19;2.05;;;1.05;;
74170;SDS011;62526;50.948;6.590;2022-12-31T05:28:46;1.40;;;1.05;;
74170;SDS011;62526;50.948;6.590;2022-12-31T05:31:12;3.35;;;1.05;;
74170;SDS011;62526;50.948;6.590;2022-12-31T05:33:39;1.33;;;0.88;;
74170;SDS011;62526;50.948;6.590;2022-12-31T05:36:06;2.05;;;0.90;;
74170;SDS011;62526;50.948;6.590;2022-12-31T05:38:33;2.22;;;0.77;;
74170;SDS011;62526;50.948;6.590;2022-12-31T05:41:03;2.25;;;1.10;;
74170;SDS011;62526;50.948;6.590;2022-12-31T05:43:29;1.23;;;1.10;;
74170;SDS011;62526;50.948;6.590;2022-12-31T05:45:55;2.45;;;1.02;;
74170;SDS011;62526;50.948;6.590;2022-12-31T05:48:23;0.80;;;0.80;;
74170;SDS011;62526;50.948;6.590;2022-12-31T05:50:50;4.18;;;1.10;;
74170;SDS011;62526;50.948;6.590;2022-12-31T05:53:16;0.88;;;0.80;;
74170;SDS011;62526;50.948;6.590;2022-12-31T05:55:45;0.80;;;0.80;;
74170;SDS011;62526;50.948;6.590;2022-12-31T05:58:11;1.70;;;1.17;;
74170;SDS011;62526;50.948;6.590;2022-12-31T06:00:37;4.00;;;1.05;;
74170;SDS011;62526;50.948;6.590;2022-12-31T06:03:04;1.67;;;1.12;;
74170;SDS011;62526;50.948;6.590;2022-12-31T06:05:31;3.05;;;0.80;;
74170;SDS011;62526;50.948;6.590;2022-12-31T06:07:58;2.45;;;0.90;;
74170;SDS011;62526;50.948;6.590;2022-12-31T06:10:25;0.57;;;0.57;;
74170;SDS011;62526;50.948;6.590;2022-12-31T06:12:51;2.17;;;1.10;;
74170;SDS011;62526;50.948;6.590;2022-12-31T06:15:18;2.92;;;1.10;;
74170;SDS011;62526;50.948;6.590;2022-12-31T06:17:45;1.83;;;0.95;;
74170;SDS011;62526;50.948;6.590;2022-12-31T06:20:12;2.03;;;0.77;;
74170;SDS011;62526;50.948;6.590;2022-12-31T06:22:39;2.50;;;0.73;;
74170;SDS011;62526;50.948;6.590;2022-12-31T06:25:05;1.27;;;1.00;;
74170;SDS011;62526;50.948;6.590;2022-12-31T06:27:32;1.48;;;0.93;;
74170;SDS011;62526;50.948;6.590;2022-12-31T06:29:59;3.05;;;1.00;;
74170;SDS011;62526;50.948;6.590;2022-12-31T06:32:26;1.48;;;1.25;;
74170;SDS011;62526;50.948;6.590;2022-12-31T06:34:54;0.62;;;0.62;;
74170;SDS011;62526;50.948;6.590;2022-12-31T06:37:21;2.90;;;1.10;;
74170;SDS011;62526;50.948;6.590;2022-12-31T06:39:48;0.90;;;0.80;;
74170;SDS011;62526;50.948;6.590;2022-12-31T06:42:14;1.17;;;0.90;;
74170;SDS011;62526;50.948;6.590;2022-12-31T06:44:41;1.33;;;1.02;;
74170;SDS011;62526;50.948;6.590;2022-12-31T06:47:08;1.23;;;1.10;;
74170;SDS011;62526;50.948;6.590;2022-12-31T06:49:34;1.40;;;1.12;;
74170;SDS011;62526;50.948;6.590;2022-12-31T06:52:01;0.82;;;0.75;;
74170;SDS011;62526;50.948;6.590;2022-12-31T06:54:28;2.42;;;0.88;;
74170;SDS011;62526;50.948;6.590;2022-12-31T06:56:55;2.28;;;1.12;;
74170;SDS011;62526;50.948;6.590;2022-12-31T06:59:26;0.90;;;0.90;;
74170;SDS011;62526;50.948;6.590;2022-12-31T07:04:45;1.33;;;0.80;;
74170;SDS011;62526;50.948;6.590;2022-12-31T07:07:48;1.35;;;1.25;;
74170;SDS011;62526;50.948;6.590;2022-12-31T07:12:42;1.92;;;0.95;;
74170;SDS011;62526;50.948;6.590;2022-12-31T07:15:13;2.28;;;1.20;;
74170;SDS011;62526;50.948;6.590;2022-12-31T07:20:32;1.00;;;0.88;;
74170;SDS011;62526;50.948;6.590;2022-12-31T07:22:59;1.85;;;0.95;;
74170;SDS011;62526;50.948;6.590;2022-12-31T07:25:26;3.50;;;1.27;;
74170;SDS011;62526;50.948;6.590;2022-12-31T07:28:02;1.15;;;1.05;;
74170;SDS011;62526;50.948;6.590;2022-12-31T07:33:19;2.22;;;1.00;;
74170;SDS011;62526;50.948;6.590;2022-12-31T07:38:28;3.15;;;1.15;;
74170;SDS011;62526;50.948;6.590;2022-12-31T07:41:12;1.33;;;1.00;;
74170;SDS011;62526;50.948;6.590;2022-12-31T07:43:49;0.95;;;0.85;;
74170;SDS011;62526;50.948;6.590;2022-12-31T07:46:32;1.95;;;0.85;;
74170;SDS011;62526;50.948;6.590;2022-12-31T07:49:00;3.00;;;1.20;;
74170;SDS011;62526;50.948;6.590;2022-12-31T07:51:27;2.20;;;0.90;;
74170;SDS011;62526;50.948;6.590;2022-12-31T07:53:54;2.67;;;0.98;;
74170;SDS011;62526;50.948;6.590;2022-12-31T07:56:21;1.02;;;0.90;;
74170;SDS011;62526;50.948;6.590;2022-12-31T07:58:51;1.98;;;1.02;;
74170;SDS011;62526;50.948;6.590;2022-12-31T08:01:36;2.97;;;1.10;;
74170;SDS011;62526;50.948;6.590;2022-12-31T08:04:02;4.90;;;1.00;;
74170;SDS011;62526;50.948;6.590;2022-12-31T08:06:31;1.90;;;0.85;;
74170;SDS011;62526;50.948;6.590;2022-12-31T08:09:00;1.67;;;1.40;;
74170;SDS011;62526;50.948;6.590;2022-12-31T08:11:37;2.70;;;1.10;;
74170;SDS011;62526;50.948;6.590;2022-12-31T08:14:07;2.33;;;0.93;;
74170;SDS011;62526;50.948;6.590;2022-12-31T08:16:40;3.62;;;1.30;;
74170;SDS011;62526;50.948;6.590;2022-12-31T08:19:10;3.35;;;1.17;;
74170;SDS011;62526;50.948;6.590;2022-12-31T08:21:39;4.05;;;1.42;;
74170;SDS011;62526;50.948;6.590;2022-12-31T08:24:17;1.85;;;1.45;;
74170;SDS011;62526;50.948;6.590;2022-12-31T08:26:52;7.72;;;1.55;;
74170;SDS011;62526;50.948;6.590;2022-12-31T08:29:21;3.12;;;1.10;;
74170;SDS011;62526;50.948;6.590;2022-12-31T08:31:58;1.50;;;1.17;;
74170;SDS011;62526;50.948;6.590;2022-12-31T08:34:29;1.95;;;0.95;;
74170;SDS011;62526;50.948;6.590;2022-12-31T08:37:03;1.83;;;1.10;;
74170;SDS011;62526;50.948;6.590;2022-12-31T08:39:34;3.62;;;0.90;;
74170;SDS011;62526;50.948;6.590;2022-12-31T08:42:23;1.62;;;1.40;;
74170;SDS011;62526;50.948;6.590;2022-12-31T08:44:51;4.30;;;0.93;;
74170;SDS011;62526;50.948;6.590;2022-12-31T08:49:53;1.20;;;1.10;;
74170;SDS011;62526;50.948;6.590;2022-12-31T08:52:22;2.12;;;1.10;;
74170;SDS011;62526;50.948;6.590;2022-12-31T08:54:50;3.05;;;1.00;;
74170;SDS011;62526;50.948;6.590;2022-12-31T08:57:21;1.15;;;0.98;;
74170;SDS011;62526;50.948;6.590;2022-12-31T09:05:34;4.45;;;1.40;;
74170;SDS011;62526;50.948;6.590;2022-12-31T09:08:07;4.37;;;1.25;;
74170;SDS011;62526;50.948;6.590;2022-12-31T09:10:43;4.32;;;1.17;;
74170;SDS011;62526;50.948;6.590;2022-12-31T09:14:20;2.87;;;1.20;;
74170;SDS011;62526;50.948;6.590;2022-12-31T09:15:56;3.75;;;1.50;;
74170;SDS011;62526;50.948;6.590;2022-12-31T09:18:37;3.90;;;1.37;;
74170;SDS011;62526;50.948;6.590;2022-12-31T09:21:02;1.25;;;1.00;;
74170;SDS011;62526;50.948;6.590;2022-12-31T09:23:29;6.43;;;1.48;;
74170;SDS011;62526;50.948;6.590;2022-12-31T09:26:00;1.67;;;1.37;;
74170;SDS011;62526;50.948;6.590;2022-12-31T09:31:29;2.08;;;1.30;;
74170;SDS011;62526;50.948;6.590;2022-12-31T09:34:02;2.65;;;1.08;;
74170;SDS011;62526;50.948;6.590;2022-12-31T09:36:29;3.90;;;1.30;;
74170;SDS011;62526;50.948;6.590;2022-12-31T09:38:59;2.47;;;1.48;;
74170;SDS011;62526;50.948;6.590;2022-12-31T09:41:33;3.47;;;1.30;;
74170;SDS011;62526;50.948;6.590;2022-12-31T09:49:29;6.03;;;1.50;;
74170;SDS011;62526;50.948;6.590;2022-12-31T09:52:11;1.85;;;1.10;;
74170;SDS011;62526;50.948;6.590;2022-12-31T09:55:12;4.20;;;1.65;;
74170;SDS011;62526;50.948;6.590;2022-12-31T09:57:37;2.42;;;1.20;;
74170;SDS011;62526;50.948;6.590;2022-12-31T10:00:09;3.22;;;1.50;;
74170;SDS011;62526;50.948;6.590;2022-12-31T10:02:41;5.03;;;1.60;;
74170;SDS011;62526;50.948;6.590;2022-12-31T10:06:21;9.10;;;1.73;;
74170;SDS011;62526;50.948;6.590;2022-12-31T10:08:26;2.75;;;1.23;;
74170;SDS011;62526;50.948;6.590;2022-12-31T10:10:51;2.97;;;1.62;;
74170;SDS011;62526;50.948;6.590;2022-12-31T10:16:23;3.37;;;1.52;;
74170;SDS011;62526;50.948;6.590;2022-12-31T10:18:42;3.20;;;1.27;;
74170;SDS011;62526;50.948;6.590;2022-12-31T10:21:13;4.55;;;1.50;;
74170;SDS011;62526;50.948;6.590;2022-12-31T10:23:48;1.33;;;1.23;;
74170;SDS011;62526;50.948;6.590;2022-12-31T10:26:20;7.18;;;1.40;;
74170;SDS011;62526;50.948;6.590;2022-12-31T10:28:54;4.18;;;1.50;;
74170;SDS011;62526;50.948;6.590;2022-12-31T10:31:30;4.72;;;1.50;;
74170;SDS011;62526;50.948;6.590;2022-12-31T10:34:12;2.97;;;1.33;;
74170;SDS011;62526;50.948;6.590;2022-12-31T10:36:46;4.90;;;1.48;;
74170;SDS011;62526;50.948;6.590;2022-12-31T10:47:22;3.80;;;1.65;;
74170;SDS011;62526;50.948;6.590;2022-12-31T10:52:47;4.70;;;1.58;;
74170;SDS011;62526;50.948;6.590;2022-12-31T11:01:03;2.53;;;1.40;;
74170;SDS011;62526;50.948;6.590;2022-12-31T11:03:37;5.03;;;1.58;;
74170;SDS011;62526;50.948;6.590;2022-12-31T11:08:50;3.10;;;1.37;;
74170;SDS011;62526;50.948;6.590;2022-12-31T11:11:18;9.02;;;1.67;;
74170;SDS011;62526;50.948;6.590;2022-12-31T11:13:48;7.30;;;1.48;;
74170;SDS011;62526;50.948;6.590;2022-12-31T11:16:18;2.10;;;1.33;;
74170;SDS011;62526;50.948;6.590;2022-12-31T11:18:47;4.10;;;1.37;;
74170;SDS011;62526;50.948;6.590;2022-12-31T11:24:07;3.45;;;1.48;;
74170;SDS011;62526;50.948;6.590;2022-12-31T11:32:12;2.47;;;1.20;;
74170;SDS011;62526;50.948;6.590;2022-12-31T11:34:48;4.55;;;1.48;;
74170;SDS011;62526;50.948;6.590;2022-12-31T11:37:19;3.33;;;1.77;;
74170;SDS011;62526;50.948;6.590;2022-12-31T11:40:01;1.85;;;1.25;;
74170;SDS011;62526;50.948;6.590;2022-12-31T11:42:35;2.30;;;1.45;;
74170;SDS011;62526;50.948;6.590;2022-12-31T11:45:12;4.90;;;2.12;;
74170;SDS011;62526;50.948;6.590;2022-12-31T11:47:43;3.58;;;1.20;;
74170;SDS011;62526;50.948;6.590;2022-12-31T11:50:27;1.95;;;1.50;;
74170;SDS011;62526;50.948;6.590;2022-12-31T11:52:58;6.65;;;1.50;;
74170;SDS011;62526;50.948;6.590;2022-12-31T11:55:51;1.80;;;1.08;;
74170;SDS011;62526;50.948;6.590;2022-12-31T11:58:24;5.35;;;1.50;;
74170;SDS011;62526;50.948;6.590;2022-12-31T12:00:59;6.03;;;1.70;;
74170;SDS011;62526;50.948;6.590;2022-12-31T12:03:31;5.35;;;1.40;;
74170;SDS011;62526;50.948;6.590;2022-12-31T12:05:57;10.38;;;1.77;;
74170;SDS011;62526;50.948;6.590;2022-12-31T12:08:24;3.85;;;1.52;;
74170;SDS011;62526;50.948;6.590;2022-12-31T12:10:52;7.18;;;1.80;;
74170;SDS011;62526;50.948;6.590;2022-12-31T12:13:21;3.92;;;1.75;;
74170;SDS011;62526;50.948;6.590;2022-12-31T12:15:47;2.83;;;1.30;;
74170;SDS011;62526;50.948;6.590;2022-12-31T12:18:47;2.45;;;1.17;;
74170;SDS011;62526;50.948;6.590;2022-12-31T12:21:00;6.15;;;1.75;;
74170;SDS011;62526;50.948;6.590;2022-12-31T12:23:26;4.28;;;1.25;;
74170;SDS011;62526;50.948;6.590;2022-12-31T12:25:52;5.53;;;1.52;;
74170;SDS011;62526;50.948;6.590;2022-12-31T12:28:21;7.30;;;1.70;;
74170;SDS011;62526;50.948;6.590;2022-12-31T12:30:53;4.50;;;1.48;;
74170;SDS011;62526;50.948;6.590;2022-12-31T12:33:19;1.73;;;1.10;;
74170;SDS011;62526;50.948;6.590;2022-12-31T12:35:46;25.83;;;2.28;;
74170;SDS011;62526;50.948;6.590;2022-12-31T12:38:16;2.35;;;1.27;;
74170;SDS011;62526;50.948;6.590;2022-12-31T12:40:50;2.28;;;1.30;;
74170;SDS011;62526;50.948;6.590;2022-12-31T12:45:44;5.80;;;1.37;;
74170;SDS011;62526;50.948;6.590;2022-12-31T12:48:15;1.62;;;1.08;;
74170;SDS011;62526;50.948;6.590;2022-12-31T12:50:42;3.47;;;1.48;;
74170;SDS011;62526;50.948;6.590;2022-12-31T12:53:14;3.97;;;1.30;;
74170;SDS011;62526;50.948;6.590;2022-12-31T12:56:07;4.90;;;1.48;;
74170;SDS011;62526;50.948;6.590;2022-12-31T12:58:51;5.12;;;1.50;;
74170;SDS011;62526;50.948;6.590;2022-12-31T13:01:23;3.40;;;1.50;;
74170;SDS011;62526;50.948;6.590;2022-12-31T13:03:55;3.53;;;1.40;;
74170;SDS011;62526;50.948;6.590;2022-12-31T13:09:13;3.30;;;1.77;;
74170;SDS011;62526;50.948;6.590;2022-12-31T13:11:44;5.20;;;2.30;;
74170;SDS011;62526;50.948;6.590;2022-12-31T13:14:16;2.12;;;1.65;;
74170;SDS011;62526;50.948;6.590;2022-12-31T13:19:50;5.55;;;1.58;;
74170;SDS011;62526;50.948;6.590;2022-12-31T13:22:22;3.15;;;2.10;;
74170;SDS011;62526;50.948;6.590;2022-12-31T13:24:56;7.10;;;2.03;;
74170;SDS011;62526;50.948;6.590;2022-12-31T13:27:27;6.03;;;1.40;;
74170;SDS011;62526;50.948;6.590;2022-12-31T13:30:11;4.47;;;1.70;;
74170;SDS011;62526;50.948;6.590;2022-12-31T13:32:39;1.90;;;1.42;;
74170;SDS011;62526;50.948;6.590;2022-12-31T13:35:39;4.00;;;1.67;;
74170;SDS011;62526;50.948;6.590;2022-12-31T13:37:54;3.40;;;1.62;;
74170;SDS011;62526;50.948;6.590;2022-12-31T13:40:20;1.87;;;1.27;;
74170;SDS011;62526;50.948;6.590;2022-12-31T13:42:51;7.40;;;2.15;;
74170;SDS011;62526;50.948;6.590;2022-12-31T13:45:18;2.67;;;1.62;;
74170;SDS011;62526;50.948;6.590;2022-12-31T13:47:44;1.92;;;1.48;;
74170;SDS011;62526;50.948;6.590;2022-12-31T13:50:18;4.00;;;1.73;;
74170;SDS011;62526;50.948;6.590;2022-12-31T13:53:03;6.85;;;1.50;;
74170;SDS011;62526;50.948;6.590;2022-12-31T13:58:18;3.97;;;1.55;;
74170;SDS011;62526;50.948;6.590;2022-12-31T14:00:46;3.55;;;1.85;;
74170;SDS011;62526;50.948;6.590;2022-12-31T14:03:16;2.15;;;1.20;;
74170;SDS011;62526;50.948;6.590;2022-12-31T14:05:41;7.72;;;1.90;;
74170;SDS011;62526;50.948;6.590;2022-12-31T14:08:24;7.05;;;1.77;;
74170;SDS011;62526;50.948;6.590;2022-12-31T14:10:56;7.45;;;1.90;;
74170;SDS011;62526;50.948;6.590;2022-12-31T14:13:48;7.57;;;1.95;;
74170;SDS011;62526;50.948;6.590;2022-12-31T14:16:24;4.85;;;1.77;;
74170;SDS011;62526;50.948;6.590;2022-12-31T14:18:57;6.82;;;2.33;;
74170;SDS011;62526;50.948;6.590;2022-12-31T14:21:33;4.25;;;1.83;;
74170;SDS011;62526;50.948;6.590;2022-12-31T14:24:08;6.93;;;1.92;;
74170;SDS011;62526;50.948;6.590;2022-12-31T14:26:33;3.60;;;1.60;;
74170;SDS011;62526;50.948;6.590;2022-12-31T14:29:02;4.72;;;1.75;;
74170;SDS011;62526;50.948;6.590;2022-12-31T14:37:01;3.47;;;1.70;;
74170;SDS011;62526;50.948;6.590;2022-12-31T14:39:48;5.03;;;1.92;;
74170;SDS011;62526;50.948;6.590;2022-12-31T14:45:20;4.32;;;1.87;;
74170;SDS011;62526;50.948;6.590;2022-12-31T14:47:51;3.08;;;1.70;;
74170;SDS011;62526;50.948;6.590;2022-12-31T14:50:19;3.20;;;1.73;;
74170;SDS011;62526;50.948;6.590;2022-12-31T14:52:47;5.75;;;1.83;;
74170;SDS011;62526;50.948;6.590;2022-12-31T14:55:25;3.83;;;1.67;;
74170;SDS011;62526;50.948;6.590;2022-12-31T14:57:52;4.35;;;1.75;;
74170;SDS011;62526;50.948;6.590;2022-12-31T15:03:18;2.95;;;1.50;;
74170;SDS011;62526;50.948;6.590;2022-12-31T15:05:50;3.55;;;1.70;;
74170;SDS011;62526;50.948;6.590;2022-12-31T15:08:24;1.40;;;1.30;;
74170;SDS011;62526;50.948;6.590;2022-12-31T15:11:17;7.03;;;2.03;;
74170;SDS011;62526;50.948;6.590;2022-12-31T15:17:09;2.30;;;1.58;;
74170;SDS011;62526;50.948;6.590;2022-12-31T15:20:03;3.92;;;1.50;;
74170;SDS011;62526;50.948;6.590;2022-12-31T15:22:36;3.78;;;1.65;;
74170;SDS011;62526;50.948;6.590;2022-12-31T15:25:22;2.12;;;1.70;;
74170;SDS011;62526;50.948;6.590;2022-12-31T15:27:47;4.10;;;1.80;;
74170;SDS011;62526;50.948;6.590;2022-12-31T15:33:07;3.22;;;1.75;;
74170;SDS011;62526;50.948;6.590;2022-12-31T15:38:25;4.65;;;2.15;;
74170;SDS011;62526;50.948;6.590;2022-12-31T15:40:51;3.70;;;2.20;;
74170;SDS011;62526;50.948;6.590;2022-12-31T15:43:28;8.82;;;1.87;;
74170;SDS011;62526;50.948;6.590;2022-12-31T15:45:54;8.80;;;2.12;;
74170;SDS011;62526;50.948;6.590;2022-12-31T15:48:21;3.83;;;1.75;;
74170;SDS011;62526;50.948;6.590;2022-12-31T15:50:50;3.10;;;1.70;;
74170;SDS011;62526;50.948;6.590;2022-12-31T15:53:22;4.90;;;1.80;;
74170;SDS011;62526;50.948;6.590;2022-12-31T15:55:43;5.62;;;1.85;;
74170;SDS011;62526;50.948;6.590;2022-12-31T15:58:10;5.90;;;1.80;;
74170;SDS011;62526;50.948;6.590;2022-12-31T16:00:44;3.03;;;1.52;;
74170;SDS011;62526;50.948;6.590;2022-12-31T16:03:18;7.20;;;1.80;;
74170;SDS011;62526;50.948;6.590;2022-12-31T16:05:43;3.12;;;2.05;;
74170;SDS011;62526;50.948;6.590;2022-12-31T16:08:11;3.87;;;1.70;;
74170;SDS011;62526;50.948;6.590;2022-12-31T16:10:37;4.37;;;1.90;;
74170;SDS011;62526;50.948;6.590;2022-12-31T16:13:03;1.92;;;1.70;;
74170;SDS011;62526;50.948;6.590;2022-12-31T16:15:31;5.68;;;1.90;;
74170;SDS011;62526;50.948;6.590;2022-12-31T16:18:08;3.78;;;1.60;;
74170;SDS011;62526;50.948;6.590;2022-12-31T16:20:40;3.20;;;1.80;;
74170;SDS011;62526;50.948;6.590;2022-12-31T16:23:10;3.72;;;1.50;;
74170;SDS011;62526;50.948;6.590;2022-12-31T16:25:29;3.62;;;1.85;;
74170;SDS011;62526;50.948;6.590;2022-12-31T16:27:56;3.20;;;1.80;;
74170;SDS011;62526;50.948;6.590;2022-12-31T16:30:25;2.85;;;1.60;;
74170;SDS011;62526;50.948;6.590;2022-12-31T16:32:52;3.67;;;1.75;;
74170;SDS011;62526;50.948;6.590;2022-12-31T16:35:25;2.67;;;1.62;;
74170;SDS011;62526;50.948;6.590;2022-12-31T16:37:46;3.58;;;1.70;;
74170;SDS011;62526;50.948;6.590;2022-12-31T16:40:16;5.95;;;2.33;;
74170;SDS011;62526;50.948;6.590;2022-12-31T16:42:41;5.12;;;2.00;;
74170;SDS011;62526;50.948;6.590;2022-12-31T16:45:18;6.35;;;2.05;;
74170;SDS011;62526;50.948;6.590;2022-12-31T16:47:49;3.55;;;1.60;;